createdAt,value
2023-02-03T00:00:37.181Z,5.15
2023-02-03T00:05:30.469Z,7.35
2023-02-03T00:10:23.991Z,5.05
2023-02-03T00:15:18.010Z,4.88
2023-02-03T00:20:14.012Z,5.55
2023-02-03T00:25:09.070Z,7.07
2023-02-03T00:30:02.784Z,7.43
2023-02-03T00:34:55.923Z,6.57
2023-02-03T00:39:49.491Z,6.97
2023-02-03T00:44:44.059Z,8.98
2023-02-03T00:49:36.295Z,7.03
2023-02-03T00:54:29.439Z,6.32
2023-02-03T00:59:22.669Z,6.82
2023-02-03T01:04:15.986Z,5.88
2023-02-03T01:09:09.087Z,7.32
2023-02-03T01:14:02.397Z,7.13
2023-02-03T01:18:56.620Z,6.63
2023-02-03T01:23:50.568Z,7.10
2023-02-03T01:28:43.327Z,8.13
2023-02-03T01:33:37.583Z,7.78
2023-02-03T01:38:31.425Z,6.10
2023-02-03T01:43:46.219Z,5.25
2023-02-03T01:48:39.095Z,5.03
2023-02-03T01:53:32.585Z,5.47
2023-02-03T01:58:28.732Z,6.20
2023-02-03T02:03:32.254Z,5.03
2023-02-03T02:08:25.853Z,5.28
2023-02-03T02:13:19.907Z,5.80
2023-02-03T02:18:15.594Z,4.80
2023-02-03T02:23:30.043Z,5.25
2023-02-03T02:28:48.025Z,4.97
2023-02-03T02:33:49.855Z,4.50
2023-02-03T02:38:49.853Z,6.07
2023-02-03T02:43:43.057Z,4.22
2023-02-03T02:48:46.942Z,5.15
2023-02-03T02:53:47.977Z,4.50
2023-02-03T02:58:44.573Z,5.15
2023-02-03T03:03:40.628Z,5.07
2023-02-03T03:08:44.623Z,4.43
2023-02-03T03:13:44.663Z,4.65
2023-02-03T03:18:43.244Z,5.28
2023-02-03T03:23:39.868Z,5.95
2023-02-03T03:28:49.015Z,6.18
2023-02-03T03:33:44.191Z,5.57
2023-02-03T03:39:05.216Z,5.68
2023-02-03T03:44:02.756Z,6.07
2023-02-03T03:48:59.544Z,5.22
2023-02-03T03:53:53.544Z,4.05
2023-02-03T03:58:47.314Z,3.95
2023-02-03T04:03:49.673Z,3.72
2023-02-03T04:08:43.459Z,3.40
2023-02-03T04:13:39.770Z,2.88
2023-02-03T04:18:32.247Z,3.35
2023-02-03T04:23:24.973Z,3.13
2023-02-03T04:28:18.618Z,2.78
2023-02-03T04:33:12.485Z,3.42
2023-02-03T04:38:05.278Z,3.45
2023-02-03T04:42:58.271Z,3.45
2023-02-03T04:47:55.168Z,2.90
2023-02-03T04:52:47.647Z,3.15
2023-02-03T04:57:40.466Z,3.20
2023-02-03T05:02:34.305Z,3.35
2023-02-03T05:07:30.076Z,3.65
2023-02-03T05:12:23.105Z,3.47
2023-02-03T05:17:16.186Z,3.90
2023-02-03T05:22:08.821Z,3.63
2023-02-03T05:27:03.399Z,4.00
2023-02-03T05:31:56.226Z,3.47
2023-02-03T05:36:49.634Z,3.55
2023-02-03T05:41:57.094Z,4.40
2023-02-03T05:46:53.186Z,5.35
2023-02-03T05:51:46.977Z,5.43
2023-02-03T05:56:41.277Z,4.65
2023-02-03T06:01:35.356Z,4.45
2023-02-03T06:06:34.103Z,3.97
2023-02-03T06:11:29.136Z,4.83
2023-02-03T06:16:22.417Z,3.75
2023-02-03T06:21:15.819Z,6.05
2023-02-03T06:26:08.776Z,5.78
2023-02-03T06:31:02.352Z,7.18
2023-02-03T06:35:56.024Z,6.43
2023-02-03T06:40:49.700Z,8.25
2023-02-03T06:45:42.564Z,6.60
2023-02-03T06:50:36.428Z,6.57
2023-02-03T06:55:28.689Z,6.05
2023-02-03T07:00:23.023Z,7.30
2023-02-03T07:05:16.606Z,5.80
2023-02-03T07:10:11.176Z,6.38
2023-02-03T07:15:24.304Z,6.65
2023-02-03T07:20:18.658Z,7.95
2023-02-03T07:25:12.671Z,7.82
2023-02-03T07:30:09.340Z,6.95
2023-02-03T07:35:03.364Z,6.65
2023-02-03T07:39:56.579Z,6.18
2023-02-03T07:44:50.265Z,7.75
2023-02-03T07:49:44.474Z,7.43
2023-02-03T07:54:37.601Z,7.20
2023-02-03T07:59:30.528Z,7.72
2023-02-03T08:04:28.309Z,8.68
2023-02-03T08:09:21.184Z,9.30
2023-02-03T08:14:15.360Z,7.93
2023-02-03T08:19:08.921Z,9.18
2023-02-03T08:24:02.370Z,9.25
2023-02-03T08:28:56.121Z,7.95
2023-02-03T08:33:49.913Z,8.25
2023-02-03T08:38:42.911Z,8.85
2023-02-03T08:43:37.117Z,9.48
2023-02-03T08:48:29.611Z,10.18
2023-02-03T08:53:22.697Z,10.63
2023-02-03T08:58:15.640Z,11.38
2023-02-03T09:03:08.865Z,11.50
2023-02-03T09:08:02.436Z,11.88
2023-02-03T09:12:55.209Z,12.40
2023-02-03T09:17:48.128Z,11.02
2023-02-03T09:22:45.084Z,12.35
2023-02-03T09:27:38.961Z,11.98
2023-02-03T09:48:59.162Z,13.77
2023-02-03T09:54:13.028Z,16.27
2023-02-03T09:59:06.060Z,14.45
2023-02-03T10:04:23.390Z,17.77
2023-02-03T10:09:31.338Z,16.80
2023-02-03T10:14:23.984Z,18.05
2023-02-03T10:19:27.938Z,19.05
2023-02-03T10:24:25.997Z,18.75
2023-02-03T10:29:44.110Z,21.38
2023-02-03T10:34:38.279Z,27.55
2023-02-03T10:39:40.014Z,35.10
2023-02-03T10:44:41.340Z,29.98
2023-02-03T10:49:34.386Z,30.58
2023-02-03T10:54:33.726Z,33.28
2023-02-03T10:59:31.775Z,28.50
2023-02-03T11:04:33.847Z,35.92
2023-02-03T11:09:35.965Z,36.90
2023-02-03T11:14:39.405Z,35.97
2023-02-03T11:19:34.233Z,38.65
2023-02-03T11:24:34.452Z,40.03
2023-02-03T11:29:35.543Z,40.05
2023-02-03T11:34:44.360Z,40.55
2023-02-03T11:39:41.129Z,40.85
2023-02-03T11:44:40.641Z,42.47
2023-02-03T11:49:50.217Z,43.60
2023-02-03T11:54:54.434Z,43.45
2023-02-03T11:59:55.960Z,45.33
2023-02-03T12:05:24.694Z,45.20
2023-02-03T12:10:24.986Z,44.60
2023-02-03T12:15:28.511Z,47.90
2023-02-03T12:20:35.817Z,46.20
2023-02-03T12:30:45.378Z,49.08
2023-02-03T12:35:56.030Z,47.75
2023-02-03T12:41:19.442Z,49.85
2023-02-03T12:46:19.860Z,46.92
2023-02-03T12:51:43.187Z,45.83
2023-02-03T12:56:45.557Z,47.35
2023-02-03T13:01:50.888Z,41.47
2023-02-03T13:07:16.743Z,38.03
2023-02-03T13:12:29.768Z,27.17
2023-02-03T13:17:35.547Z,38.50
2023-02-03T13:22:35.974Z,53.22
2023-02-03T13:27:52.377Z,28.95
2023-02-03T13:33:18.387Z,27.77
2023-02-03T13:38:44.271Z,25.58
2023-02-03T13:43:49.959Z,27.88
2023-02-03T13:48:53.312Z,29.98
2023-02-03T13:53:54.369Z,30.08
2023-02-03T13:59:06.258Z,36.17
2023-02-03T14:04:06.329Z,30.48
2023-02-03T14:09:03.734Z,29.27
2023-02-03T14:14:13.828Z,29.88
2023-02-03T14:19:17.709Z,27.20
2023-02-03T14:24:21.723Z,28.42
2023-02-03T14:29:39.202Z,32.30
2023-02-03T14:34:45.481Z,31.75
2023-02-03T14:40:07.764Z,29.63
2023-02-03T14:45:20.924Z,35.20
2023-02-03T14:50:42.334Z,31.58
2023-02-03T14:56:05.632Z,32.00
2023-02-03T15:00:59.187Z,34.58
2023-02-03T15:05:58.376Z,32.08
2023-02-03T15:10:51.474Z,34.80
2023-02-03T15:15:45.388Z,39.63
2023-02-03T15:21:00.481Z,39.83
2023-02-03T15:25:55.522Z,37.25
2023-02-03T15:31:08.766Z,35.80
2023-02-03T15:36:06.758Z,39.63
2023-02-03T15:41:00.578Z,39.30
2023-02-03T15:46:04.341Z,39.95
2023-02-03T15:51:19.647Z,43.17
2023-02-03T15:56:38.125Z,39.55
2023-02-03T16:01:31.102Z,38.72
2023-02-03T16:06:31.195Z,45.33
2023-02-03T16:11:55.830Z,40.33
2023-02-03T16:17:04.899Z,39.75
2023-02-03T16:22:01.138Z,41.15
2023-02-03T16:27:00.360Z,40.33
2023-02-03T16:32:14.378Z,45.08
2023-02-03T16:37:55.079Z,45.35
2023-02-03T16:43:14.135Z,48.67
2023-02-03T16:48:32.473Z,44.92
2023-02-03T16:53:36.123Z,49.45
2023-02-03T16:58:37.677Z,47.70
2023-02-03T17:03:35.203Z,47.85
2023-02-03T17:13:25.254Z,51.88
2023-02-03T17:18:20.868Z,54.35
2023-02-03T17:23:17.363Z,54.42
2023-02-03T17:28:15.224Z,53.28
2023-02-03T17:33:18.121Z,60.72
2023-02-03T17:38:34.963Z,56.40
2023-02-03T17:54:12.684Z,54.58
2023-02-03T17:59:12.329Z,55.38
2023-02-03T18:04:12.532Z,56.22
2023-02-03T18:09:17.278Z,56.53
2023-02-03T18:14:20.413Z,56.65
2023-02-03T18:19:19.743Z,54.30
2023-02-03T18:24:21.460Z,56.20
2023-02-03T18:29:22.330Z,57.13
2023-02-03T18:34:24.004Z,74.63
2023-02-03T18:39:21.446Z,63.67
2023-02-03T18:44:22.208Z,74.78
2023-02-03T18:49:21.850Z,68.93
2023-02-03T18:54:23.710Z,66.75
2023-02-03T18:59:22.388Z,66.00
2023-02-03T19:04:19.504Z,61.92
2023-02-03T19:09:19.760Z,62.05
2023-02-03T19:14:18.844Z,62.17
2023-02-03T19:19:17.418Z,63.78
2023-02-03T19:24:17.379Z,61.30
2023-02-03T19:29:12.948Z,64.60
2023-02-03T19:34:10.188Z,64.82
2023-02-03T19:39:08.308Z,59.97
2023-02-03T19:44:07.735Z,64.03
2023-02-03T19:49:16.705Z,57.60
2023-02-03T19:54:19.656Z,69.53
2023-02-03T19:59:15.497Z,72.15
2023-02-03T20:04:08.294Z,61.65
2023-02-03T20:09:01.515Z,53.88
2023-02-03T20:13:55.553Z,49.38
2023-02-03T20:18:48.793Z,47.47
2023-02-03T20:23:41.544Z,40.40
2023-02-03T20:28:34.584Z,40.17
2023-02-03T20:33:29.792Z,40.63
2023-02-03T20:38:23.632Z,41.47
2023-02-03T20:43:22.217Z,43.03
2023-02-03T20:48:16.678Z,45.90
2023-02-03T20:53:16.837Z,38.50
2023-02-03T20:58:19.434Z,32.53
2023-02-03T21:03:33.141Z,35.70
2023-02-03T21:08:27.869Z,33.47
2023-02-03T21:13:28.860Z,34.17
2023-02-03T21:18:51.968Z,37.95
2023-02-03T21:23:47.746Z,41.45
2023-02-03T21:28:42.149Z,40.92
2023-02-03T21:33:42.690Z,43.83
2023-02-03T21:38:36.100Z,43.05
2023-02-03T21:43:33.108Z,40.85
2023-02-03T21:48:34.984Z,41.97
2023-02-03T21:53:33.417Z,44.60
2023-02-03T21:58:34.756Z,45.28
2023-02-03T22:03:27.300Z,44.50
2023-02-03T22:08:24.633Z,51.03
2023-02-03T22:13:18.726Z,40.40
2023-02-03T22:18:12.166Z,42.70
2023-02-03T22:23:06.326Z,36.53
2023-02-03T22:27:59.384Z,41.22
2023-02-03T22:32:52.461Z,41.47
2023-02-03T22:37:46.052Z,38.22
2023-02-03T22:42:39.492Z,38.40
2023-02-03T22:47:33.073Z,39.63
2023-02-03T22:52:25.944Z,35.85
2023-02-03T22:57:19.653Z,42.17
2023-02-03T23:02:12.837Z,37.15
2023-02-03T23:07:06.705Z,28.95
2023-02-03T23:11:59.452Z,22.00
2023-02-03T23:16:52.338Z,21.98
2023-02-03T23:21:46.437Z,19.88
2023-02-03T23:26:40.901Z,16.20
2023-02-03T23:31:34.330Z,14.77
2023-02-03T23:36:28.168Z,16.92
2023-02-03T23:41:22.373Z,14.73
2023-02-03T23:46:15.360Z,16.63
2023-02-03T23:51:09.248Z,18.45
2023-02-03T23:56:02.646Z,20.33
